createdAt,value
2023-11-02T00:01:56.846Z,12.51
2023-11-02T00:04:25.668Z,12.36
2023-11-02T00:06:56.747Z,12.35
2023-11-02T00:09:41.064Z,12.37
2023-11-02T00:12:12.443Z,12.41
2023-11-02T00:14:46.948Z,12.40
2023-11-02T00:17:48.419Z,12.35
2023-11-02T00:20:37.464Z,12.45
2023-11-02T00:23:06.997Z,12.52
2023-11-02T00:25:55.323Z,12.47
2023-11-02T00:28:25.511Z,12.43
2023-11-02T00:30:54.406Z,12.49
2023-11-02T00:33:28.519Z,12.43
2023-11-02T00:35:56.997Z,12.61
2023-11-02T00:38:27.869Z,12.62
2023-11-02T00:40:57.248Z,12.61
2023-11-02T00:43:27.180Z,12.60
2023-11-02T00:45:56.265Z,12.49
2023-11-02T00:48:29.008Z,12.52
2023-11-02T00:51:25.982Z,12.47
2023-11-02T00:53:57.299Z,12.27
2023-11-02T00:56:32.849Z,12.23
2023-11-02T00:59:01.865Z,12.12
2023-11-02T01:01:31.288Z,12.16
2023-11-02T01:04:04.943Z,12.11
2023-11-02T01:06:37.997Z,12.10
2023-11-02T01:09:39.073Z,12.14
2023-11-02T01:12:07.657Z,12.11
2023-11-02T01:14:48.688Z,12.13
2023-11-02T01:17:33.442Z,12.11
2023-11-02T01:20:08.476Z,12.32
2023-11-02T01:22:56.451Z,12.16
2023-11-02T01:25:28.823Z,12.05
2023-11-02T01:28:02.333Z,12.06
2023-11-02T01:31:06.384Z,12.03
2023-11-02T01:34:02.370Z,12.07
2023-11-02T01:36:43.983Z,11.99
2023-11-02T01:39:49.419Z,12.01
2023-11-02T01:42:32.912Z,12.05
2023-11-02T01:45:07.565Z,11.81
2023-11-02T01:47:50.553Z,11.79
2023-11-02T01:50:33.037Z,11.70
2023-11-02T01:53:25.784Z,11.71
2023-11-02T01:56:19.408Z,11.83
2023-11-02T01:59:01.889Z,11.82
2023-11-02T02:01:36.283Z,11.72
2023-11-02T02:04:17.209Z,11.74
2023-11-02T02:06:52.171Z,11.72
2023-11-02T02:09:33.888Z,11.86
2023-11-02T02:12:09.280Z,11.76
2023-11-02T02:14:55.680Z,11.72
2023-11-02T02:17:34.989Z,11.83
2023-11-02T02:20:09.592Z,11.78
2023-11-02T02:22:46.890Z,11.82
2023-11-02T02:25:25.311Z,11.86
2023-11-02T02:28:19.494Z,11.84
2023-11-02T02:31:20.909Z,11.74
2023-11-02T02:34:30.591Z,11.93
2023-11-02T02:37:09.192Z,11.83
2023-11-02T02:39:41.485Z,11.79
2023-11-02T02:42:13.324Z,11.91
2023-11-02T02:44:43.476Z,11.90
2023-11-02T02:47:13.235Z,11.88
2023-11-02T02:49:49.513Z,11.98
2023-11-02T02:52:23.554Z,12.08
2023-11-02T02:54:55.404Z,12.02
2023-11-02T02:57:29.941Z,11.95
2023-11-02T03:00:02.346Z,12.00
2023-11-02T03:02:34.064Z,12.08
2023-11-02T03:05:03.957Z,11.98
2023-11-02T03:07:34.057Z,12.02
2023-11-02T03:10:05.192Z,11.94
2023-11-02T03:12:35.644Z,11.89
2023-11-02T03:15:08.958Z,11.91
2023-11-02T03:17:48.003Z,12.01
2023-11-02T03:20:17.529Z,11.96
2023-11-02T03:22:49.677Z,11.94
2023-11-02T03:25:26.005Z,11.94
2023-11-02T03:28:09.100Z,11.95
2023-11-02T03:30:53.085Z,11.92
2023-11-02T03:33:29.510Z,11.89
2023-11-02T03:36:04.708Z,11.86
2023-11-02T03:38:53.446Z,11.88
2023-11-02T03:41:28.333Z,11.75
2023-11-02T03:44:04.513Z,11.75
2023-11-02T03:46:47.214Z,11.88
2023-11-02T03:49:26.489Z,11.91
2023-11-02T03:52:04.590Z,11.79
2023-11-02T03:54:53.875Z,11.86
2023-11-02T03:57:30.752Z,11.87
2023-11-02T04:00:10.476Z,11.88
2023-11-02T04:02:47.167Z,11.92
2023-11-02T04:05:21.276Z,11.90
2023-11-02T04:08:01.002Z,11.87
2023-11-02T04:10:33.140Z,11.90
2023-11-02T04:13:18.722Z,11.95
2023-11-02T04:15:46.782Z,12.00
2023-11-02T04:18:15.196Z,12.00
2023-11-02T04:20:45.902Z,11.95
2023-11-02T04:23:14.590Z,12.01
2023-11-02T04:25:43.912Z,11.99
2023-11-02T04:28:12.006Z,12.03
2023-11-02T04:30:41.774Z,12.08
2023-11-02T04:33:09.931Z,12.02
2023-11-02T04:35:38.899Z,12.03
2023-11-02T04:38:10.810Z,12.08
2023-11-02T04:40:41.271Z,12.04
2023-11-02T04:43:11.589Z,12.07
2023-11-02T04:45:39.684Z,12.09
2023-11-02T04:48:09.470Z,12.03
2023-11-02T04:50:40.513Z,12.07
2023-11-02T04:53:11.905Z,12.11
2023-11-02T04:55:42.324Z,12.16
2023-11-02T04:58:13.844Z,12.01
2023-11-02T05:00:43.317Z,12.07
2023-11-02T05:03:16.783Z,11.93
2023-11-02T05:05:46.114Z,11.95
2023-11-02T05:08:14.983Z,11.97
2023-11-02T05:10:43.616Z,11.98
2023-11-02T05:13:14.036Z,12.03
2023-11-02T05:15:55.520Z,11.87
2023-11-02T05:18:25.827Z,11.97
2023-11-02T05:21:00.980Z,11.76
2023-11-02T05:23:29.381Z,11.78
2023-11-02T05:25:57.719Z,11.72
2023-11-02T05:28:28.020Z,11.72
2023-11-02T05:30:56.642Z,11.72
2023-11-02T05:33:26.887Z,11.79
2023-11-02T05:35:54.910Z,11.72
2023-11-02T05:38:23.184Z,11.72
2023-11-02T05:40:51.148Z,11.66
2023-11-02T05:43:19.053Z,11.57
2023-11-02T05:45:49.720Z,11.58
2023-11-02T05:48:18.605Z,11.58
2023-11-02T05:50:46.632Z,11.52
2023-11-02T05:53:14.539Z,11.58
2023-11-02T05:55:43.284Z,11.52
2023-11-02T05:58:11.847Z,11.45
2023-11-02T06:00:40.526Z,11.45
2023-11-02T06:03:12.239Z,11.43
2023-11-02T06:05:40.080Z,11.39
2023-11-02T06:08:08.172Z,11.36
2023-11-02T06:10:37.428Z,11.44
2023-11-02T06:13:06.240Z,11.42
2023-11-02T06:15:35.223Z,11.45
2023-11-02T06:18:06.426Z,11.40
2023-11-02T06:20:35.742Z,11.34
2023-11-02T06:23:04.945Z,11.43
2023-11-02T06:25:33.027Z,11.30
2023-11-02T06:28:03.011Z,11.18
2023-11-02T06:30:32.675Z,11.17
2023-11-02T06:33:07.523Z,11.17
2023-11-02T06:35:38.119Z,11.21
2023-11-02T06:38:09.210Z,11.15
2023-11-02T06:40:37.302Z,11.24
2023-11-02T06:43:07.978Z,11.28
2023-11-02T06:45:36.498Z,11.19
2023-11-02T06:48:04.918Z,11.10
2023-11-02T06:50:34.381Z,11.23
2023-11-02T06:53:04.201Z,11.16
2023-11-02T06:55:32.148Z,11.13
2023-11-02T06:58:00.126Z,11.14
2023-11-02T07:00:30.525Z,11.27
2023-11-02T07:02:58.772Z,11.15
2023-11-02T07:05:29.757Z,11.17
2023-11-02T07:07:57.956Z,11.22
2023-11-02T07:10:28.020Z,11.23
2023-11-02T07:12:55.856Z,11.19
2023-11-02T07:15:24.892Z,11.22
2023-11-02T07:17:53.335Z,11.26
2023-11-02T07:20:21.874Z,11.17
2023-11-02T07:22:50.131Z,11.13
2023-11-02T07:25:18.713Z,11.09
2023-11-02T07:27:48.329Z,11.13
2023-11-02T07:30:16.836Z,11.11
2023-11-02T07:32:45.136Z,11.07
2023-11-02T07:35:13.094Z,11.23
2023-11-02T07:37:43.745Z,11.23
2023-11-02T07:40:13.125Z,11.25
2023-11-02T07:42:42.639Z,11.25
2023-11-02T07:45:12.990Z,11.21
2023-11-02T07:47:42.540Z,11.16
2023-11-02T07:50:11.478Z,11.16
2023-11-02T07:52:41.484Z,11.13
2023-11-02T07:55:11.361Z,11.16
2023-11-02T07:57:41.628Z,11.23
2023-11-02T08:00:12.340Z,11.15
2023-11-02T08:02:44.282Z,11.22
2023-11-02T08:05:12.680Z,11.35
2023-11-02T08:07:40.609Z,11.22
2023-11-02T08:10:10.299Z,11.26
2023-11-02T08:12:38.506Z,11.24
2023-11-02T08:15:07.260Z,11.45
2023-11-02T08:17:39.911Z,11.51
2023-11-02T08:20:12.139Z,11.64
2023-11-02T08:22:40.067Z,11.63
2023-11-02T08:25:10.737Z,11.63
2023-11-02T08:27:40.949Z,11.60
2023-11-02T08:30:12.664Z,11.59
2023-11-02T08:32:40.919Z,11.75
2023-11-02T08:35:12.404Z,11.85
2023-11-02T08:37:40.302Z,11.82
2023-11-02T08:40:12.474Z,11.75
2023-11-02T08:42:41.647Z,11.67
2023-11-02T08:45:10.933Z,11.66
2023-11-02T08:47:44.273Z,11.76
2023-11-02T08:50:16.660Z,11.78
2023-11-02T08:52:44.655Z,12.01
2023-11-02T08:55:13.795Z,12.10
2023-11-02T08:57:43.495Z,12.25
2023-11-02T09:00:17.659Z,12.17
2023-11-02T09:02:47.030Z,12.36
2023-11-02T09:05:16.318Z,12.32
2023-11-02T09:07:44.509Z,12.23
2023-11-02T09:10:12.804Z,12.19
2023-11-02T09:12:41.445Z,12.34
2023-11-02T09:15:13.327Z,12.32
2023-11-02T09:17:41.711Z,12.44
2023-11-02T09:20:13.802Z,12.59
2023-11-02T09:22:46.130Z,12.51
2023-11-02T09:25:14.386Z,12.45
2023-11-02T09:27:48.848Z,12.44
2023-11-02T09:30:17.744Z,12.44
2023-11-02T09:32:48.056Z,12.62
2023-11-02T09:35:18.695Z,12.62
2023-11-02T09:37:51.016Z,12.59
2023-11-02T09:40:19.436Z,12.59
2023-11-02T09:42:47.518Z,12.68
2023-11-02T09:45:16.220Z,12.66
2023-11-02T09:47:44.235Z,12.77
2023-11-02T09:50:12.429Z,12.73
2023-11-02T09:52:43.509Z,12.65
2023-11-02T09:55:15.155Z,12.68
2023-11-02T09:57:44.073Z,12.76
2023-11-02T10:00:18.529Z,12.72
2023-11-02T10:02:48.863Z,12.74
2023-11-02T10:05:17.087Z,12.76
2023-11-02T10:07:46.033Z,12.86
2023-11-02T10:10:16.333Z,12.90
2023-11-02T10:12:44.330Z,12.88
2023-11-02T10:15:17.651Z,12.90
2023-11-02T10:17:46.998Z,12.94
2023-11-02T10:20:16.971Z,12.87
2023-11-02T10:22:46.476Z,12.89
2023-11-02T10:25:16.259Z,12.97
2023-11-02T10:27:45.163Z,13.19
2023-11-02T10:30:15.221Z,13.33
2023-11-02T10:32:43.585Z,13.21
2023-11-02T10:35:11.771Z,13.28
2023-11-02T10:37:43.043Z,13.28
2023-11-02T10:40:11.764Z,13.35
2023-11-02T10:42:42.734Z,13.43
2023-11-02T10:45:15.131Z,13.51
2023-11-02T10:47:43.451Z,13.60
2023-11-02T10:50:14.996Z,13.75
2023-11-02T10:52:47.687Z,13.89
2023-11-02T10:55:21.789Z,13.87
2023-11-02T10:57:51.924Z,13.82
2023-11-02T11:00:23.853Z,13.90
2023-11-02T11:02:52.849Z,13.86
2023-11-02T11:05:25.198Z,13.78
2023-11-02T11:07:57.558Z,13.90
2023-11-02T11:10:25.946Z,13.88
2023-11-02T11:12:56.762Z,13.89
2023-11-02T11:15:26.559Z,13.82
2023-11-02T11:17:57.005Z,13.91
2023-11-02T11:20:29.680Z,13.93
2023-11-02T11:22:58.712Z,13.88
2023-11-02T11:25:27.616Z,13.87
2023-11-02T11:27:59.576Z,13.89
2023-11-02T11:30:38.795Z,13.92
2023-11-02T11:33:42.625Z,13.94
2023-11-02T11:36:21.002Z,13.95
2023-11-02T11:38:49.383Z,14.05
2023-11-02T11:41:42.610Z,13.93
2023-11-02T11:44:24.265Z,13.91
2023-11-02T11:46:57.313Z,14.01
2023-11-02T11:49:50.300Z,14.03
2023-11-02T11:52:22.871Z,13.99
2023-11-02T11:54:51.292Z,13.89
2023-11-02T11:57:58.236Z,13.95
2023-11-02T12:00:29.014Z,13.86
2023-11-02T12:02:59.503Z,13.89
2023-11-02T12:05:55.832Z,13.93
2023-11-02T12:08:24.813Z,13.88
2023-11-02T12:10:55.457Z,13.87
2023-11-02T12:13:24.666Z,13.84
2023-11-02T12:15:59.085Z,13.94
2023-11-02T12:18:29.926Z,13.91
2023-11-02T12:20:59.449Z,13.93
2023-11-02T12:23:35.058Z,13.94
2023-11-02T12:26:04.501Z,13.96
2023-11-02T12:28:49.315Z,13.91
2023-11-02T12:31:32.206Z,13.96
2023-11-02T12:34:03.141Z,14.00
2023-11-02T12:36:32.238Z,14.00
2023-11-02T12:39:02.386Z,14.10
2023-11-02T12:41:32.786Z,13.95
2023-11-02T12:44:04.115Z,13.91
2023-11-02T12:46:35.489Z,14.00
2023-11-02T12:49:17.002Z,14.02
2023-11-02T12:51:45.820Z,13.95
2023-11-02T12:54:18.525Z,13.97
2023-11-02T12:56:47.722Z,13.87
2023-11-02T12:59:16.031Z,13.80
2023-11-02T13:01:52.916Z,13.86
2023-11-02T13:04:22.253Z,13.79
2023-11-02T13:06:50.171Z,13.84
2023-11-02T13:09:23.497Z,13.80
2023-11-02T13:11:55.086Z,13.70
2023-11-02T13:14:26.284Z,13.76
2023-11-02T13:16:56.898Z,13.75
2023-11-02T13:19:26.385Z,13.73
2023-11-02T13:21:54.799Z,13.73
2023-11-02T13:24:25.180Z,13.84
2023-11-02T13:26:53.197Z,13.82
2023-11-02T13:29:21.876Z,13.78
2023-11-02T13:31:51.194Z,13.80
2023-11-02T13:34:21.400Z,13.93
2023-11-02T13:36:50.403Z,13.86
2023-11-02T13:39:18.359Z,13.79
2023-11-02T13:41:46.593Z,13.71
2023-11-02T13:44:16.891Z,13.72
2023-11-02T13:46:44.865Z,13.76
2023-11-02T13:49:13.955Z,13.71
2023-11-02T13:51:43.426Z,13.67
2023-11-02T13:54:12.174Z,13.69
2023-11-02T13:56:40.293Z,13.74
2023-11-02T13:59:13.422Z,13.63
2023-11-02T14:01:42.227Z,13.62
2023-11-02T14:04:10.586Z,13.59
2023-11-02T14:06:39.088Z,13.68
2023-11-02T14:09:10.910Z,13.71
2023-11-02T14:11:38.783Z,13.78
2023-11-02T14:14:07.819Z,13.68
2023-11-02T14:16:38.897Z,13.67
2023-11-02T14:19:09.699Z,13.68
2023-11-02T14:21:40.176Z,13.62
2023-11-02T14:24:08.847Z,13.59
2023-11-02T14:26:38.405Z,13.57
2023-11-02T14:29:06.926Z,13.68
2023-11-02T14:31:36.842Z,13.68
2023-11-02T14:34:06.985Z,13.66
2023-11-02T14:36:36.034Z,13.61
2023-11-02T14:39:05.064Z,13.67
2023-11-02T14:41:33.115Z,13.52
2023-11-02T14:44:02.386Z,13.65
2023-11-02T14:46:30.396Z,13.72
2023-11-02T14:49:00.786Z,13.59
2023-11-02T14:51:31.013Z,13.71
2023-11-02T14:54:01.120Z,13.79
2023-11-02T14:56:33.001Z,13.77
2023-11-02T14:59:02.396Z,13.69
2023-11-02T15:01:31.149Z,13.60
2023-11-02T15:04:02.376Z,13.56
2023-11-02T15:06:31.737Z,13.48
2023-11-02T15:09:09.876Z,13.51
2023-11-02T15:11:41.133Z,13.43
2023-11-02T15:14:12.272Z,13.44
2023-11-02T15:16:40.227Z,13.27
2023-11-02T15:19:08.199Z,13.29
2023-11-02T15:21:38.619Z,13.20
2023-11-02T15:24:08.380Z,13.15
2023-11-02T15:26:36.643Z,13.22
2023-11-02T15:29:05.543Z,13.25
2023-11-02T15:31:35.154Z,13.20
2023-11-02T15:34:04.771Z,13.09
2023-11-02T15:36:38.150Z,13.10
2023-11-02T15:39:11.485Z,13.14
2023-11-02T15:41:41.437Z,13.06
2023-11-02T15:44:10.280Z,13.19
2023-11-02T15:46:44.007Z,13.04
2023-11-02T15:49:13.169Z,13.04
2023-11-02T15:51:45.511Z,13.01
2023-11-02T15:54:17.816Z,13.08
2023-11-02T15:56:47.340Z,13.08
2023-11-02T15:59:16.058Z,13.15
2023-11-02T16:01:45.320Z,12.96
2023-11-02T16:04:13.805Z,12.87
2023-11-02T16:06:42.524Z,12.76
2023-11-02T16:09:10.620Z,12.84
2023-11-02T16:11:45.799Z,12.84
2023-11-02T16:14:16.192Z,12.81
2023-11-02T16:16:46.384Z,12.87
2023-11-02T16:19:15.057Z,12.83
2023-11-02T16:21:44.797Z,12.84
2023-11-02T16:24:16.182Z,12.67
2023-11-02T16:26:46.273Z,12.65
2023-11-02T16:29:14.586Z,12.65
2023-11-02T16:31:42.946Z,12.81
2023-11-02T16:34:23.172Z,12.89
2023-11-02T16:36:56.089Z,12.71
2023-11-02T16:39:25.358Z,12.78
2023-11-02T16:41:56.055Z,12.63
2023-11-02T16:44:28.688Z,12.70
2023-11-02T16:47:00.243Z,12.62
2023-11-02T16:49:30.257Z,12.62
2023-11-02T16:51:58.594Z,12.53
2023-11-02T16:54:26.655Z,12.49
2023-11-02T16:56:55.226Z,12.63
2023-11-02T16:59:23.152Z,12.57
2023-11-02T17:01:56.087Z,12.46
2023-11-02T17:04:24.120Z,12.46
2023-11-02T17:06:56.095Z,12.52
2023-11-02T17:09:24.797Z,12.38
2023-11-02T17:11:52.687Z,12.45
2023-11-02T17:14:20.644Z,12.37
2023-11-02T17:16:49.072Z,12.37
2023-11-02T17:19:17.499Z,12.29
2023-11-02T17:21:46.950Z,12.31
2023-11-02T17:24:16.460Z,12.25
2023-11-02T17:26:45.528Z,12.18
2023-11-02T17:29:13.614Z,12.11
2023-11-02T17:31:45.916Z,12.06
2023-11-02T17:34:14.233Z,12.02
2023-11-02T17:36:43.494Z,12.22
2023-11-02T17:39:13.812Z,12.15
2023-11-02T17:41:44.596Z,12.10
2023-11-02T17:44:13.583Z,11.97
2023-11-02T17:46:41.644Z,11.95
2023-11-02T17:49:10.474Z,11.92
2023-11-02T17:51:42.274Z,11.95
2023-11-02T17:54:11.790Z,11.89
2023-11-02T17:56:44.727Z,11.83
2023-11-02T17:59:15.819Z,11.80
2023-11-02T18:01:46.015Z,11.79
2023-11-02T18:04:16.207Z,11.75
2023-11-02T18:06:44.640Z,11.64
2023-11-02T18:09:12.647Z,11.67
2023-11-02T18:11:40.701Z,11.63
2023-11-02T18:14:11.313Z,11.78
2023-11-02T18:16:39.489Z,11.64
2023-11-02T18:19:07.790Z,11.50
2023-11-02T18:21:39.397Z,11.41
2023-11-02T18:24:09.899Z,11.42
2023-11-02T18:26:37.963Z,11.43
2023-11-02T18:29:10.504Z,11.42
2023-11-02T18:31:40.110Z,11.51
2023-11-02T18:34:08.336Z,11.47
2023-11-02T18:36:40.609Z,11.54
2023-11-02T18:39:10.521Z,11.57
2023-11-02T18:41:38.733Z,11.64
2023-11-02T18:44:07.212Z,11.62
2023-11-02T18:46:35.559Z,11.67
2023-11-02T18:49:07.250Z,11.54
2023-11-02T18:51:43.857Z,11.66
2023-11-02T18:54:13.572Z,11.60
2023-11-02T18:56:48.296Z,11.77
2023-11-02T18:59:16.276Z,11.74
2023-11-02T19:01:44.120Z,11.82
2023-11-02T19:04:13.578Z,11.92
2023-11-02T19:06:41.663Z,11.92
2023-11-02T19:09:10.583Z,11.92
2023-11-02T19:11:43.926Z,11.93
2023-11-02T19:14:14.643Z,11.99
2023-11-02T19:16:42.648Z,12.06
2023-11-02T19:19:14.536Z,12.08
2023-11-02T19:21:43.776Z,12.01
2023-11-02T19:24:12.761Z,12.13
2023-11-02T19:26:41.937Z,12.04
2023-11-02T19:29:10.058Z,12.04
2023-11-02T19:31:45.286Z,12.16
2023-11-02T19:34:15.216Z,12.04
2023-11-02T19:36:45.594Z,12.28
2023-11-02T19:39:14.336Z,12.27
2023-11-02T19:41:45.140Z,12.32
2023-11-02T19:44:14.392Z,12.23
2023-11-02T19:46:45.133Z,12.04
2023-11-02T19:49:15.314Z,11.99
2023-11-02T19:51:44.724Z,11.97
2023-11-02T19:54:14.947Z,12.02
2023-11-02T19:56:45.195Z,12.24
2023-11-02T19:59:14.024Z,12.16
2023-11-02T20:01:44.486Z,12.13
2023-11-02T20:04:14.012Z,12.03
2023-11-02T20:06:42.482Z,12.09
2023-11-02T20:09:15.037Z,12.01
2023-11-02T20:11:45.437Z,11.92
2023-11-02T20:14:14.559Z,11.90
2023-11-02T20:16:48.025Z,11.82
2023-11-02T20:19:17.487Z,11.79
2023-11-02T20:21:45.766Z,11.78
2023-11-02T20:24:13.788Z,11.68
2023-11-02T20:26:43.942Z,11.43
2023-11-02T20:29:11.922Z,11.47
2023-11-02T20:31:40.773Z,11.40
2023-11-02T20:34:08.720Z,11.28
2023-11-02T20:36:38.234Z,11.34
2023-11-02T20:39:06.402Z,11.22
2023-11-02T20:41:36.090Z,11.09
2023-11-02T20:44:04.519Z,11.06
2023-11-02T20:46:32.720Z,11.10
2023-11-02T20:49:00.821Z,11.05
2023-11-02T20:51:31.461Z,11.02
2023-11-02T20:54:01.079Z,10.95
2023-11-02T20:56:29.264Z,10.88
2023-11-02T20:58:57.204Z,10.93
2023-11-02T21:01:25.178Z,10.93
2023-11-02T21:03:53.221Z,10.92
2023-11-02T21:06:29.498Z,10.99
2023-11-02T21:08:57.868Z,10.92
2023-11-02T21:11:27.125Z,11.00
2023-11-02T21:13:55.080Z,10.93
2023-11-02T21:16:23.900Z,10.81
2023-11-02T21:18:52.499Z,10.78
2023-11-02T21:21:22.845Z,10.84
2023-11-02T21:23:50.797Z,10.78
2023-11-02T21:26:21.098Z,10.80
2023-11-02T21:28:50.548Z,10.66
2023-11-02T21:31:18.394Z,10.62
2023-11-02T21:33:46.450Z,10.63
2023-11-02T21:36:14.486Z,10.64
2023-11-02T21:38:42.540Z,10.54
2023-11-02T21:41:11.138Z,10.78
2023-11-02T21:43:39.722Z,10.65
2023-11-02T21:46:10.356Z,10.53
2023-11-02T21:48:41.189Z,10.43
2023-11-02T21:51:11.458Z,10.41
2023-11-02T21:53:39.725Z,10.39
2023-11-02T21:56:08.915Z,10.32
2023-11-02T21:58:36.958Z,10.35
2023-11-02T22:01:05.356Z,10.36
2023-11-02T22:03:35.044Z,10.46
2023-11-02T22:06:02.987Z,10.40
2023-11-02T22:08:30.940Z,10.55
2023-11-02T22:10:58.860Z,10.64
2023-11-02T22:13:26.967Z,10.45
2023-11-02T22:15:55.013Z,10.33
2023-11-02T22:18:23.090Z,10.26
2023-11-02T22:20:52.480Z,10.20
2023-11-02T22:23:20.399Z,10.13
2023-11-02T22:25:50.889Z,10.11
2023-11-02T22:28:18.746Z,10.07
2023-11-02T22:30:47.048Z,9.98
2023-11-02T22:33:15.128Z,9.96
2023-11-02T22:35:43.487Z,9.95
2023-11-02T22:38:15.785Z,9.93
2023-11-02T22:40:44.033Z,10.05
2023-11-02T22:43:12.736Z,10.02
2023-11-02T22:45:40.714Z,10.06
2023-11-02T22:48:08.860Z,10.09
2023-11-02T22:50:37.107Z,10.09
2023-11-02T22:53:05.116Z,10.07
2023-11-02T22:55:34.401Z,10.07
2023-11-02T22:58:02.372Z,9.92
2023-11-02T23:00:34.061Z,9.83
2023-11-02T23:03:02.641Z,9.74
2023-11-02T23:05:30.974Z,9.64
2023-11-02T23:07:59.765Z,9.64
2023-11-02T23:10:29.982Z,9.59
2023-11-02T23:12:59.712Z,9.56
2023-11-02T23:15:30.106Z,9.52
2023-11-02T23:17:58.110Z,9.60
2023-11-02T23:20:26.281Z,9.53
2023-11-02T23:22:54.579Z,9.51
2023-11-02T23:25:23.225Z,9.46
2023-11-02T23:27:51.504Z,9.50
2023-11-02T23:30:21.411Z,9.51
2023-11-02T23:32:50.785Z,9.50
2023-11-02T23:35:18.966Z,9.44
2023-11-02T23:37:47.383Z,9.33
2023-11-02T23:40:16.921Z,9.43
2023-11-02T23:42:46.109Z,9.48
2023-11-02T23:45:14.654Z,9.56
2023-11-02T23:47:44.107Z,9.40
2023-11-02T23:50:12.522Z,9.42
2023-11-02T23:52:42.566Z,9.36
2023-11-02T23:55:11.179Z,9.41
2023-11-02T23:57:39.625Z,9.51
